sensor_id;sensor_type;location;lat;lon;timestamp;P1;durP1;ratioP1;P2;durP2;ratioP2
29576;SDS011;16509;53.862;10.672;2023-02-27T00:00:26;8.70;;;2.78;;
29576;SDS011;16509;53.862;10.672;2023-02-27T00:02:52;5.20;;;2.72;;
29576;SDS011;16509;53.862;10.672;2023-02-27T00:05:18;6.45;;;2.75;;
29576;SDS011;16509;53.862;10.672;2023-02-27T00:07:46;8.63;;;3.42;;
29576;SDS011;16509;53.862;10.672;2023-02-27T00:10:12;14.50;;;4.65;;
29576;SDS011;16509;53.862;10.672;2023-02-27T00:12:39;6.45;;;3.65;;
29576;SDS011;16509;53.862;10.672;2023-02-27T00:15:09;6.00;;;3.13;;
29576;SDS011;16509;53.862;10.672;2023-02-27T00:17:35;6.95;;;3.20;;
29576;SDS011;16509;53.862;10.672;2023-02-27T00:20:01;8.20;;;3.20;;
29576;SDS011;16509;53.862;10.672;2023-02-27T00:22:27;5.40;;;2.80;;
29576;SDS011;16509;53.862;10.672;2023-02-27T00:24:53;7.72;;;3.38;;
29576;SDS011;16509;53.862;10.672;2023-02-27T00:27:19;5.07;;;3.08;;
29576;SDS011;16509;53.862;10.672;2023-02-27T00:29:45;6.80;;;3.67;;
29576;SDS011;16509;53.862;10.672;2023-02-27T00:32:11;5.63;;;3.70;;
29576;SDS011;16509;53.862;10.672;2023-02-27T00:34:37;9.05;;;3.70;;
29576;SDS011;16509;53.862;10.672;2023-02-27T00:37:03;9.95;;;3.10;;
29576;SDS011;16509;53.862;10.672;2023-02-27T00:39:30;6.30;;;3.13;;
29576;SDS011;16509;53.862;10.672;2023-02-27T00:41:56;10.50;;;2.90;;
29576;SDS011;16509;53.862;10.672;2023-02-27T00:44:22;5.70;;;2.60;;
29576;SDS011;16509;53.862;10.672;2023-02-27T00:46:48;6.63;;;2.78;;
29576;SDS011;16509;53.862;10.672;2023-02-27T00:49:14;6.18;;;2.50;;
29576;SDS011;16509;53.862;10.672;2023-02-27T00:51:40;6.30;;;2.67;;
29576;SDS011;16509;53.862;10.672;2023-02-27T00:54:06;6.78;;;3.28;;
29576;SDS011;16509;53.862;10.672;2023-02-27T00:56:33;7.85;;;3.40;;
29576;SDS011;16509;53.862;10.672;2023-02-27T00:58:59;10.88;;;4.10;;
29576;SDS011;16509;53.862;10.672;2023-02-27T01:01:25;10.25;;;3.55;;
29576;SDS011;16509;53.862;10.672;2023-02-27T01:03:51;9.57;;;4.13;;
29576;SDS011;16509;53.862;10.672;2023-02-27T01:06:18;8.93;;;4.60;;
29576;SDS011;16509;53.862;10.672;2023-02-27T01:08:44;12.55;;;4.22;;
29576;SDS011;16509;53.862;10.672;2023-02-27T01:11:10;13.00;;;4.63;;
29576;SDS011;16509;53.862;10.672;2023-02-27T01:13:36;10.68;;;4.18;;
29576;SDS011;16509;53.862;10.672;2023-02-27T01:16:02;8.88;;;3.65;;
29576;SDS011;16509;53.862;10.672;2023-02-27T01:18:29;7.43;;;3.42;;
29576;SDS011;16509;53.862;10.672;2023-02-27T01:20:55;14.65;;;5.07;;
29576;SDS011;16509;53.862;10.672;2023-02-27T01:23:21;18.45;;;5.78;;
29576;SDS011;16509;53.862;10.672;2023-02-27T01:25:48;12.73;;;6.10;;
29576;SDS011;16509;53.862;10.672;2023-02-27T01:28:14;13.25;;;5.97;;
29576;SDS011;16509;53.862;10.672;2023-02-27T01:30:40;17.05;;;5.85;;
29576;SDS011;16509;53.862;10.672;2023-02-27T01:33:06;15.55;;;5.63;;
29576;SDS011;16509;53.862;10.672;2023-02-27T01:35:33;16.73;;;4.28;;
29576;SDS011;16509;53.862;10.672;2023-02-27T01:37:59;14.25;;;4.82;;
29576;SDS011;16509;53.862;10.672;2023-02-27T01:40:25;13.50;;;3.55;;
29576;SDS011;16509;53.862;10.672;2023-02-27T01:42:51;12.93;;;4.05;;
29576;SDS011;16509;53.862;10.672;2023-02-27T01:45:28;6.60;;;3.25;;
29576;SDS011;16509;53.862;10.672;2023-02-27T01:47:56;5.13;;;3.10;;
29576;SDS011;16509;53.862;10.672;2023-02-27T01:50:23;9.45;;;3.13;;
29576;SDS011;16509;53.862;10.672;2023-02-27T01:52:51;4.78;;;2.78;;
29576;SDS011;16509;53.862;10.672;2023-02-27T01:55:19;8.20;;;3.35;;
29576;SDS011;16509;53.862;10.672;2023-02-27T01:57:45;8.32;;;3.45;;
29576;SDS011;16509;53.862;10.672;2023-02-27T02:00:13;10.73;;;3.00;;
29576;SDS011;16509;53.862;10.672;2023-02-27T02:02:41;11.20;;;3.47;;
29576;SDS011;16509;53.862;10.672;2023-02-27T02:05:12;6.13;;;2.88;;
29576;SDS011;16509;53.862;10.672;2023-02-27T02:07:39;6.78;;;3.25;;
29576;SDS011;16509;53.862;10.672;2023-02-27T02:10:07;8.88;;;3.20;;
29576;SDS011;16509;53.862;10.672;2023-02-27T02:12:37;8.02;;;2.83;;
29576;SDS011;16509;53.862;10.672;2023-02-27T02:15:03;9.63;;;2.78;;
29576;SDS011;16509;53.862;10.672;2023-02-27T02:17:36;6.15;;;3.20;;
29576;SDS011;16509;53.862;10.672;2023-02-27T02:42:24;6.43;;;3.45;;
29576;SDS011;16509;53.862;10.672;2023-02-27T02:45:39;8.80;;;3.10;;
29576;SDS011;16509;53.862;10.672;2023-02-27T02:50:35;11.98;;;3.60;;
29576;SDS011;16509;53.862;10.672;2023-02-27T02:58:46;5.40;;;3.35;;
29576;SDS011;16509;53.862;10.672;2023-02-27T03:01:16;12.35;;;3.35;;
29576;SDS011;16509;53.862;10.672;2023-02-27T03:03:58;10.88;;;3.50;;
29576;SDS011;16509;53.862;10.672;2023-02-27T03:06:32;9.95;;;3.00;;
29576;SDS011;16509;53.862;10.672;2023-02-27T03:09:06;6.60;;;3.83;;
29576;SDS011;16509;53.862;10.672;2023-02-27T03:11:55;8.32;;;3.65;;
29576;SDS011;16509;53.862;10.672;2023-02-27T03:17:05;6.95;;;3.45;;
29576;SDS011;16509;53.862;10.672;2023-02-27T03:19:54;9.00;;;3.88;;
29576;SDS011;16509;53.862;10.672;2023-02-27T03:22:45;7.85;;;3.15;;
29576;SDS011;16509;53.862;10.672;2023-02-27T03:25:11;5.28;;;3.22;;
29576;SDS011;16509;53.862;10.672;2023-02-27T03:27:42;8.52;;;3.97;;
29576;SDS011;16509;53.862;10.672;2023-02-27T03:30:29;10.55;;;3.40;;
29576;SDS011;16509;53.862;10.672;2023-02-27T03:33:19;10.75;;;3.58;;
29576;SDS011;16509;53.862;10.672;2023-02-27T03:35:54;8.75;;;3.13;;
29576;SDS011;16509;53.862;10.672;2023-02-27T03:38:30;9.07;;;3.40;;
29576;SDS011;16509;53.862;10.672;2023-02-27T03:43:58;7.57;;;3.58;;
29576;SDS011;16509;53.862;10.672;2023-02-27T03:46:33;5.13;;;3.55;;
29576;SDS011;16509;53.862;10.672;2023-02-27T03:49:00;9.38;;;4.05;;
29576;SDS011;16509;53.862;10.672;2023-02-27T03:51:26;6.95;;;3.60;;
29576;SDS011;16509;53.862;10.672;2023-02-27T03:56:47;11.25;;;3.75;;
29576;SDS011;16509;53.862;10.672;2023-02-27T03:59:17;12.50;;;4.50;;
29576;SDS011;16509;53.862;10.672;2023-02-27T04:01:42;8.55;;;4.38;;
29576;SDS011;16509;53.862;10.672;2023-02-27T04:04:10;14.15;;;3.95;;
29576;SDS011;16509;53.862;10.672;2023-02-27T04:06:37;11.27;;;4.38;;
29576;SDS011;16509;53.862;10.672;2023-02-27T04:09:49;7.32;;;3.97;;
29576;SDS011;16509;53.862;10.672;2023-02-27T04:15:26;11.25;;;3.95;;
29576;SDS011;16509;53.862;10.672;2023-02-27T04:20:45;7.50;;;4.00;;
29576;SDS011;16509;53.862;10.672;2023-02-27T04:23:27;7.85;;;3.55;;
29576;SDS011;16509;53.862;10.672;2023-02-27T04:26:20;17.15;;;4.15;;
29576;SDS011;16509;53.862;10.672;2023-02-27T04:29:04;14.93;;;4.25;;
29576;SDS011;16509;53.862;10.672;2023-02-27T04:34:27;8.52;;;3.92;;
29576;SDS011;16509;53.862;10.672;2023-02-27T04:37:00;7.45;;;3.92;;
29576;SDS011;16509;53.862;10.672;2023-02-27T04:39:33;8.50;;;4.18;;
29576;SDS011;16509;53.862;10.672;2023-02-27T04:42:09;16.25;;;4.47;;
29576;SDS011;16509;53.862;10.672;2023-02-27T04:44:39;6.32;;;3.60;;
29576;SDS011;16509;53.862;10.672;2023-02-27T04:47:05;8.98;;;3.92;;
29576;SDS011;16509;53.862;10.672;2023-02-27T04:52:01;12.80;;;4.32;;
29576;SDS011;16509;53.862;10.672;2023-02-27T04:54:50;9.23;;;3.67;;
29576;SDS011;16509;53.862;10.672;2023-02-27T04:57:36;10.98;;;4.55;;
29576;SDS011;16509;53.862;10.672;2023-02-27T05:00:05;13.43;;;4.63;;
29576;SDS011;16509;53.862;10.672;2023-02-27T05:02:36;10.52;;;3.67;;
29576;SDS011;16509;53.862;10.672;2023-02-27T05:05:10;7.20;;;4.18;;
29576;SDS011;16509;53.862;10.672;2023-02-27T05:08:00;15.45;;;5.20;;
29576;SDS011;16509;53.862;10.672;2023-02-27T05:13:42;7.15;;;4.18;;
29576;SDS011;16509;53.862;10.672;2023-02-27T05:16:30;12.75;;;4.22;;
29576;SDS011;16509;53.862;10.672;2023-02-27T05:19:00;8.32;;;4.43;;
29576;SDS011;16509;53.862;10.672;2023-02-27T05:21:35;19.63;;;5.10;;
29576;SDS011;16509;53.862;10.672;2023-02-27T05:30:27;10.95;;;5.25;;
29576;SDS011;16509;53.862;10.672;2023-02-27T05:33:12;11.52;;;4.68;;
29576;SDS011;16509;53.862;10.672;2023-02-27T05:35:44;10.90;;;4.53;;
29576;SDS011;16509;53.862;10.672;2023-02-27T05:38:20;17.38;;;5.03;;
29576;SDS011;16509;53.862;10.672;2023-02-27T05:40:53;17.73;;;6.38;;
29576;SDS011;16509;53.862;10.672;2023-02-27T05:43:27;18.63;;;5.40;;
29576;SDS011;16509;53.862;10.672;2023-02-27T05:45:57;15.30;;;5.10;;
29576;SDS011;16509;53.862;10.672;2023-02-27T05:48:29;12.60;;;5.70;;
29576;SDS011;16509;53.862;10.672;2023-02-27T05:51:07;11.07;;;4.35;;
29576;SDS011;16509;53.862;10.672;2023-02-27T05:53:37;9.15;;;4.47;;
29576;SDS011;16509;53.862;10.672;2023-02-27T05:56:07;9.38;;;5.13;;
29576;SDS011;16509;53.862;10.672;2023-02-27T05:58:40;11.85;;;4.85;;
29576;SDS011;16509;53.862;10.672;2023-02-27T06:01:09;12.05;;;4.70;;
29576;SDS011;16509;53.862;10.672;2023-02-27T06:03:36;13.52;;;4.80;;
29576;SDS011;16509;53.862;10.672;2023-02-27T06:06:04;11.27;;;4.70;;
29576;SDS011;16509;53.862;10.672;2023-02-27T06:08:34;11.07;;;4.78;;
29576;SDS011;16509;53.862;10.672;2023-02-27T06:11:00;8.20;;;4.43;;
29576;SDS011;16509;53.862;10.672;2023-02-27T06:13:26;12.85;;;5.50;;
29576;SDS011;16509;53.862;10.672;2023-02-27T06:15:52;13.48;;;5.68;;
29576;SDS011;16509;53.862;10.672;2023-02-27T06:18:18;17.88;;;6.55;;
29576;SDS011;16509;53.862;10.672;2023-02-27T06:20:44;15.07;;;6.05;;
29576;SDS011;16509;53.862;10.672;2023-02-27T06:23:11;10.00;;;5.97;;
29576;SDS011;16509;53.862;10.672;2023-02-27T06:25:40;17.70;;;5.57;;
29576;SDS011;16509;53.862;10.672;2023-02-27T06:28:08;14.77;;;6.15;;
29576;SDS011;16509;53.862;10.672;2023-02-27T06:30:35;15.00;;;6.10;;
29576;SDS011;16509;53.862;10.672;2023-02-27T06:33:01;13.30;;;5.10;;
29576;SDS011;16509;53.862;10.672;2023-02-27T06:35:27;13.52;;;6.55;;
29576;SDS011;16509;53.862;10.672;2023-02-27T06:37:54;25.45;;;7.65;;
29576;SDS011;16509;53.862;10.672;2023-02-27T06:40:20;15.73;;;7.57;;
29576;SDS011;16509;53.862;10.672;2023-02-27T06:42:45;20.17;;;7.18;;
29576;SDS011;16509;53.862;10.672;2023-02-27T06:45:11;15.90;;;6.43;;
29576;SDS011;16509;53.862;10.672;2023-02-27T06:47:38;20.75;;;6.53;;
29576;SDS011;16509;53.862;10.672;2023-02-27T06:50:05;13.20;;;6.47;;
29576;SDS011;16509;53.862;10.672;2023-02-27T06:52:32;14.88;;;5.47;;
29576;SDS011;16509;53.862;10.672;2023-02-27T06:54:57;14.48;;;5.78;;
29576;SDS011;16509;53.862;10.672;2023-02-27T06:57:24;14.48;;;5.13;;
29576;SDS011;16509;53.862;10.672;2023-02-27T06:59:49;19.08;;;5.45;;
29576;SDS011;16509;53.862;10.672;2023-02-27T07:02:15;12.52;;;4.85;;
29576;SDS011;16509;53.862;10.672;2023-02-27T07:04:41;18.02;;;5.68;;
29576;SDS011;16509;53.862;10.672;2023-02-27T07:07:07;13.15;;;5.15;;
29576;SDS011;16509;53.862;10.672;2023-02-27T07:09:33;11.00;;;5.22;;
29576;SDS011;16509;53.862;10.672;2023-02-27T07:12:00;11.32;;;5.18;;
29576;SDS011;16509;53.862;10.672;2023-02-27T07:14:26;15.20;;;4.97;;
29576;SDS011;16509;53.862;10.672;2023-02-27T07:16:52;10.85;;;4.68;;
29576;SDS011;16509;53.862;10.672;2023-02-27T07:19:18;14.13;;;5.53;;
29576;SDS011;16509;53.862;10.672;2023-02-27T07:21:44;20.27;;;5.03;;
29576;SDS011;16509;53.862;10.672;2023-02-27T07:24:10;15.52;;;6.18;;
29576;SDS011;16509;53.862;10.672;2023-02-27T07:26:35;17.77;;;5.88;;
29576;SDS011;16509;53.862;10.672;2023-02-27T07:29:02;10.45;;;5.45;;
29576;SDS011;16509;53.862;10.672;2023-02-27T07:31:28;10.15;;;4.80;;
29576;SDS011;16509;53.862;10.672;2023-02-27T07:33:53;16.98;;;6.38;;
29576;SDS011;16509;53.862;10.672;2023-02-27T07:36:19;11.95;;;5.00;;
29576;SDS011;16509;53.862;10.672;2023-02-27T07:38:44;12.77;;;5.63;;
29576;SDS011;16509;53.862;10.672;2023-02-27T07:41:10;12.57;;;5.40;;
29576;SDS011;16509;53.862;10.672;2023-02-27T07:43:36;13.50;;;5.25;;
29576;SDS011;16509;53.862;10.672;2023-02-27T07:46:01;14.68;;;6.35;;
29576;SDS011;16509;53.862;10.672;2023-02-27T07:48:28;12.13;;;5.15;;
29576;SDS011;16509;53.862;10.672;2023-02-27T07:50:54;15.50;;;6.43;;
29576;SDS011;16509;53.862;10.672;2023-02-27T07:53:20;13.10;;;5.40;;
29576;SDS011;16509;53.862;10.672;2023-02-27T07:55:45;17.75;;;4.72;;
29576;SDS011;16509;53.862;10.672;2023-02-27T07:58:11;10.40;;;4.72;;
29576;SDS011;16509;53.862;10.672;2023-02-27T08:00:38;13.65;;;5.68;;
29576;SDS011;16509;53.862;10.672;2023-02-27T08:03:04;9.35;;;4.60;;
29576;SDS011;16509;53.862;10.672;2023-02-27T08:05:29;10.75;;;4.00;;
29576;SDS011;16509;53.862;10.672;2023-02-27T08:07:55;8.30;;;4.38;;
29576;SDS011;16509;53.862;10.672;2023-02-27T08:10:21;10.63;;;4.03;;
29576;SDS011;16509;53.862;10.672;2023-02-27T08:12:46;14.05;;;4.30;;
29576;SDS011;16509;53.862;10.672;2023-02-27T08:15:12;10.80;;;4.15;;
29576;SDS011;16509;53.862;10.672;2023-02-27T08:17:37;13.95;;;3.80;;
29576;SDS011;16509;53.862;10.672;2023-02-27T08:20:03;9.50;;;3.20;;
29576;SDS011;16509;53.862;10.672;2023-02-27T08:22:29;6.82;;;2.97;;
29576;SDS011;16509;53.862;10.672;2023-02-27T08:24:56;9.48;;;3.50;;
29576;SDS011;16509;53.862;10.672;2023-02-27T08:27:22;15.23;;;3.65;;
29576;SDS011;16509;53.862;10.672;2023-02-27T08:29:47;16.20;;;3.53;;
29576;SDS011;16509;53.862;10.672;2023-02-27T08:32:13;9.18;;;3.65;;
29576;SDS011;16509;53.862;10.672;2023-02-27T08:34:39;9.30;;;3.05;;
29576;SDS011;16509;53.862;10.672;2023-02-27T08:37:04;14.90;;;3.28;;
29576;SDS011;16509;53.862;10.672;2023-02-27T08:39:30;7.88;;;3.35;;
29576;SDS011;16509;53.862;10.672;2023-02-27T08:41:55;14.48;;;2.70;;
29576;SDS011;16509;53.862;10.672;2023-02-27T08:44:21;7.90;;;3.05;;
29576;SDS011;16509;53.862;10.672;2023-02-27T08:46:47;10.30;;;3.47;;
29576;SDS011;16509;53.862;10.672;2023-02-27T08:49:12;8.48;;;3.00;;
29576;SDS011;16509;53.862;10.672;2023-02-27T08:51:38;11.15;;;1.95;;
29576;SDS011;16509;53.862;10.672;2023-02-27T08:54:04;5.90;;;1.92;;
29576;SDS011;16509;53.862;10.672;2023-02-27T08:56:29;4.68;;;2.08;;
29576;SDS011;16509;53.862;10.672;2023-02-27T08:58:57;7.68;;;2.17;;
29576;SDS011;16509;53.862;10.672;2023-02-27T09:01:23;8.23;;;2.13;;
29576;SDS011;16509;53.862;10.672;2023-02-27T09:03:52;18.52;;;2.25;;
29576;SDS011;16509;53.862;10.672;2023-02-27T09:06:17;15.40;;;3.05;;
29576;SDS011;16509;53.862;10.672;2023-02-27T09:08:43;5.72;;;2.42;;
29576;SDS011;16509;53.862;10.672;2023-02-27T09:11:08;7.93;;;1.98;;
29576;SDS011;16509;53.862;10.672;2023-02-27T09:13:34;9.98;;;2.15;;
29576;SDS011;16509;53.862;10.672;2023-02-27T09:15:59;3.55;;;1.83;;
29576;SDS011;16509;53.862;10.672;2023-02-27T09:18:25;15.15;;;1.70;;
29576;SDS011;16509;53.862;10.672;2023-02-27T09:20:51;7.90;;;1.88;;
29576;SDS011;16509;53.862;10.672;2023-02-27T09:23:16;6.05;;;1.67;;
29576;SDS011;16509;53.862;10.672;2023-02-27T09:25:42;1.88;;;1.33;;
29576;SDS011;16509;53.862;10.672;2023-02-27T09:28:08;7.25;;;1.20;;
29576;SDS011;16509;53.862;10.672;2023-02-27T09:30:34;10.43;;;2.40;;
29576;SDS011;16509;53.862;10.672;2023-02-27T09:32:59;6.28;;;1.30;;
29576;SDS011;16509;53.862;10.672;2023-02-27T09:35:25;11.77;;;1.58;;
29576;SDS011;16509;53.862;10.672;2023-02-27T09:37:51;8.15;;;1.52;;
29576;SDS011;16509;53.862;10.672;2023-02-27T09:40:24;8.68;;;1.35;;
29576;SDS011;16509;53.862;10.672;2023-02-27T09:42:54;6.53;;;1.80;;
29576;SDS011;16509;53.862;10.672;2023-02-27T09:47:53;5.07;;;1.20;;
29576;SDS011;16509;53.862;10.672;2023-02-27T09:50:38;6.85;;;1.65;;
29576;SDS011;16509;53.862;10.672;2023-02-27T09:53:31;6.80;;;1.52;;
29576;SDS011;16509;53.862;10.672;2023-02-27T09:56:06;2.22;;;1.30;;
29576;SDS011;16509;53.862;10.672;2023-02-27T09:59:16;2.92;;;1.33;;
29576;SDS011;16509;53.862;10.672;2023-02-27T10:02:04;9.82;;;1.13;;
29576;SDS011;16509;53.862;10.672;2023-02-27T10:07:11;2.15;;;1.00;;
29576;SDS011;16509;53.862;10.672;2023-02-27T10:09:41;4.65;;;1.48;;
29576;SDS011;16509;53.862;10.672;2023-02-27T10:15:14;2.97;;;1.17;;
29576;SDS011;16509;53.862;10.672;2023-02-27T10:17:53;3.33;;;1.20;;
29576;SDS011;16509;53.862;10.672;2023-02-27T10:20:25;2.05;;;1.10;;
29576;SDS011;16509;53.862;10.672;2023-02-27T10:22:59;2.38;;;1.13;;
29576;SDS011;16509;53.862;10.672;2023-02-27T10:25:27;6.63;;;1.27;;
29576;SDS011;16509;53.862;10.672;2023-02-27T10:27:59;1.63;;;1.10;;
29576;SDS011;16509;53.862;10.672;2023-02-27T10:30:35;2.80;;;0.98;;
29576;SDS011;16509;53.862;10.672;2023-02-27T10:33:05;6.78;;;1.20;;
29576;SDS011;16509;53.862;10.672;2023-02-27T10:35:52;1.30;;;1.00;;
29576;SDS011;16509;53.862;10.672;2023-02-27T10:38:24;3.55;;;1.20;;
29576;SDS011;16509;53.862;10.672;2023-02-27T10:40:57;5.72;;;0.95;;
29576;SDS011;16509;53.862;10.672;2023-02-27T10:43:24;0.73;;;0.65;;
29576;SDS011;16509;53.862;10.672;2023-02-27T10:45:49;1.08;;;0.82;;
29576;SDS011;16509;53.862;10.672;2023-02-27T10:48:17;5.28;;;1.13;;
29576;SDS011;16509;53.862;10.672;2023-02-27T10:50:44;1.58;;;1.00;;
29576;SDS011;16509;53.862;10.672;2023-02-27T10:56:02;3.53;;;1.02;;
29576;SDS011;16509;53.862;10.672;2023-02-27T10:58:30;6.72;;;1.17;;
29576;SDS011;16509;53.862;10.672;2023-02-27T11:00:59;5.90;;;1.10;;
29576;SDS011;16509;53.862;10.672;2023-02-27T11:03:40;5.82;;;0.93;;
29576;SDS011;16509;53.862;10.672;2023-02-27T11:08:37;4.05;;;1.67;;
29576;SDS011;16509;53.862;10.672;2023-02-27T11:11:07;2.45;;;1.00;;
29576;SDS011;16509;53.862;10.672;2023-02-27T11:13:35;2.15;;;0.98;;
29576;SDS011;16509;53.862;10.672;2023-02-27T11:16:13;3.85;;;1.40;;
29576;SDS011;16509;53.862;10.672;2023-02-27T11:18:41;4.45;;;1.35;;
29576;SDS011;16509;53.862;10.672;2023-02-27T11:23:37;3.95;;;1.00;;
29576;SDS011;16509;53.862;10.672;2023-02-27T11:26:33;2.08;;;1.10;;
29576;SDS011;16509;53.862;10.672;2023-02-27T11:29:17;5.97;;;1.80;;
29576;SDS011;16509;53.862;10.672;2023-02-27T11:31:45;5.78;;;1.30;;
29576;SDS011;16509;53.862;10.672;2023-02-27T11:37:05;4.55;;;0.85;;
29576;SDS011;16509;53.862;10.672;2023-02-27T11:39:52;5.95;;;0.80;;
29576;SDS011;16509;53.862;10.672;2023-02-27T11:42:30;8.57;;;1.23;;
29576;SDS011;16509;53.862;10.672;2023-02-27T11:44:59;4.65;;;1.10;;
29576;SDS011;16509;53.862;10.672;2023-02-27T11:47:32;3.78;;;0.90;;
29576;SDS011;16509;53.862;10.672;2023-02-27T11:55:18;3.55;;;1.25;;
29576;SDS011;16509;53.862;10.672;2023-02-27T11:57:48;8.32;;;2.58;;
29576;SDS011;16509;53.862;10.672;2023-02-27T12:00:21;7.10;;;1.88;;
29576;SDS011;16509;53.862;10.672;2023-02-27T12:03:04;2.88;;;1.58;;
29576;SDS011;16509;53.862;10.672;2023-02-27T12:05:42;2.40;;;1.52;;
29576;SDS011;16509;53.862;10.672;2023-02-27T12:08:14;1.08;;;0.90;;
29576;SDS011;16509;53.862;10.672;2023-02-27T12:13:23;9.20;;;1.00;;
29576;SDS011;16509;53.862;10.672;2023-02-27T12:16:00;3.53;;;1.27;;
29576;SDS011;16509;53.862;10.672;2023-02-27T12:18:34;1.63;;;0.80;;
29576;SDS011;16509;53.862;10.672;2023-02-27T12:26:30;4.90;;;1.17;;
29576;SDS011;16509;53.862;10.672;2023-02-27T12:29:22;3.13;;;1.17;;
29576;SDS011;16509;53.862;10.672;2023-02-27T12:34:48;2.08;;;1.08;;
29576;SDS011;16509;53.862;10.672;2023-02-27T12:37:25;5.97;;;1.20;;
29576;SDS011;16509;53.862;10.672;2023-02-27T12:39:57;5.22;;;1.05;;
29576;SDS011;16509;53.862;10.672;2023-02-27T12:42:31;7.53;;;1.43;;
29576;SDS011;16509;53.862;10.672;2023-02-27T12:50:23;5.80;;;2.70;;
29576;SDS011;16509;53.862;10.672;2023-02-27T12:55:39;3.95;;;1.50;;
29576;SDS011;16509;53.862;10.672;2023-02-27T13:00:59;2.42;;;1.10;;
29576;SDS011;16509;53.862;10.672;2023-02-27T13:03:31;2.05;;;0.90;;
29576;SDS011;16509;53.862;10.672;2023-02-27T13:17:26;1.95;;;1.00;;
29576;SDS011;16509;53.862;10.672;2023-02-27T13:22:51;0.77;;;0.73;;
29576;SDS011;16509;53.862;10.672;2023-02-27T13:25:17;3.75;;;0.93;;
29576;SDS011;16509;53.862;10.672;2023-02-27T13:27:46;3.30;;;1.02;;
29576;SDS011;16509;53.862;10.672;2023-02-27T13:30:23;6.03;;;1.35;;
29576;SDS011;16509;53.862;10.672;2023-02-27T13:32:58;3.05;;;1.00;;
29576;SDS011;16509;53.862;10.672;2023-02-27T13:56:42;1.20;;;1.00;;
29576;SDS011;16509;53.862;10.672;2023-02-27T14:01:37;7.10;;;1.25;;
29576;SDS011;16509;53.862;10.672;2023-02-27T14:04:04;4.25;;;1.55;;
29576;SDS011;16509;53.862;10.672;2023-02-27T14:06:32;2.53;;;1.20;;
29576;SDS011;16509;53.862;10.672;2023-02-27T14:09:08;5.50;;;1.30;;
29576;SDS011;16509;53.862;10.672;2023-02-27T14:11:38;4.03;;;1.35;;
29576;SDS011;16509;53.862;10.672;2023-02-27T14:14:05;3.60;;;1.20;;
29576;SDS011;16509;53.862;10.672;2023-02-27T14:21:50;1.07;;;0.87;;
29576;SDS011;16509;53.862;10.672;2023-02-27T14:24:21;3.38;;;1.02;;
29576;SDS011;16509;53.862;10.672;2023-02-27T14:26:51;4.35;;;1.38;;
29576;SDS011;16509;53.862;10.672;2023-02-27T14:29:19;2.97;;;1.00;;
29576;SDS011;16509;53.862;10.672;2023-02-27T14:31:47;5.00;;;1.48;;
29576;SDS011;16509;53.862;10.672;2023-02-27T14:34:14;2.75;;;1.40;;
29576;SDS011;16509;53.862;10.672;2023-02-27T14:36:45;5.10;;;1.17;;
29576;SDS011;16509;53.862;10.672;2023-02-27T14:44:50;8.27;;;1.35;;
29576;SDS011;16509;53.862;10.672;2023-02-27T14:49:44;3.35;;;1.52;;
29576;SDS011;16509;53.862;10.672;2023-02-27T14:52:22;8.93;;;1.88;;
29576;SDS011;16509;53.862;10.672;2023-02-27T14:55:04;12.48;;;1.52;;
29576;SDS011;16509;53.862;10.672;2023-02-27T14:58:18;2.97;;;1.67;;
29576;SDS011;16509;53.862;10.672;2023-02-27T15:01:05;5.72;;;1.58;;
29576;SDS011;16509;53.862;10.672;2023-02-27T15:03:37;4.72;;;1.83;;
29576;SDS011;16509;53.862;10.672;2023-02-27T15:06:13;5.45;;;1.92;;
29576;SDS011;16509;53.862;10.672;2023-02-27T15:08:40;4.03;;;1.88;;
29576;SDS011;16509;53.862;10.672;2023-02-27T15:11:12;5.90;;;1.35;;
29576;SDS011;16509;53.862;10.672;2023-02-27T15:13:39;4.15;;;1.80;;
29576;SDS011;16509;53.862;10.672;2023-02-27T15:19:16;5.22;;;2.22;;
29576;SDS011;16509;53.862;10.672;2023-02-27T15:21:45;5.85;;;2.40;;
29576;SDS011;16509;53.862;10.672;2023-02-27T15:26:46;2.13;;;1.05;;
29576;SDS011;16509;53.862;10.672;2023-02-27T15:29:27;2.92;;;1.48;;
29576;SDS011;16509;53.862;10.672;2023-02-27T15:31:59;6.60;;;1.50;;
29576;SDS011;16509;53.862;10.672;2023-02-27T15:34:25;6.50;;;1.40;;
29576;SDS011;16509;53.862;10.672;2023-02-27T15:36:52;6.70;;;2.47;;
29576;SDS011;16509;53.862;10.672;2023-02-27T15:39:21;6.00;;;1.75;;
29576;SDS011;16509;53.862;10.672;2023-02-27T15:42:22;5.25;;;1.60;;
29576;SDS011;16509;53.862;10.672;2023-02-27T15:44:41;7.75;;;3.25;;
29576;SDS011;16509;53.862;10.672;2023-02-27T15:47:09;4.60;;;1.67;;
29576;SDS011;16509;53.862;10.672;2023-02-27T15:49:38;6.75;;;2.22;;
29576;SDS011;16509;53.862;10.672;2023-02-27T15:52:11;6.90;;;2.13;;
29576;SDS011;16509;53.862;10.672;2023-02-27T15:54:46;7.07;;;2.08;;
29576;SDS011;16509;53.862;10.672;2023-02-27T15:57:16;6.45;;;1.50;;
29576;SDS011;16509;53.862;10.672;2023-02-27T15:59:43;1.92;;;1.30;;
29576;SDS011;16509;53.862;10.672;2023-02-27T16:02:12;4.72;;;2.05;;
29576;SDS011;16509;53.862;10.672;2023-02-27T16:04:53;5.88;;;1.48;;
29576;SDS011;16509;53.862;10.672;2023-02-27T16:07:20;6.25;;;1.70;;
29576;SDS011;16509;53.862;10.672;2023-02-27T16:09:59;2.95;;;1.58;;
29576;SDS011;16509;53.862;10.672;2023-02-27T16:15:35;8.68;;;1.33;;
29576;SDS011;16509;53.862;10.672;2023-02-27T16:18:21;5.70;;;1.73;;
29576;SDS011;16509;53.862;10.672;2023-02-27T16:21:49;4.50;;;1.55;;
29576;SDS011;16509;53.862;10.672;2023-02-27T16:23:49;4.32;;;2.00;;
29576;SDS011;16509;53.862;10.672;2023-02-27T16:28:58;9.30;;;2.60;;
29576;SDS011;16509;53.862;10.672;2023-02-27T16:32:13;3.83;;;2.15;;
29576;SDS011;16509;53.862;10.672;2023-02-27T16:36:51;2.72;;;1.30;;
29576;SDS011;16509;53.862;10.672;2023-02-27T16:39:18;3.33;;;1.70;;
29576;SDS011;16509;53.862;10.672;2023-02-27T16:41:44;3.80;;;1.45;;
29576;SDS011;16509;53.862;10.672;2023-02-27T16:44:09;2.50;;;1.52;;
29576;SDS011;16509;53.862;10.672;2023-02-27T16:46:35;7.00;;;1.63;;
29576;SDS011;16509;53.862;10.672;2023-02-27T16:49:01;6.53;;;1.42;;
29576;SDS011;16509;53.862;10.672;2023-02-27T16:51:27;6.25;;;1.80;;
29576;SDS011;16509;53.862;10.672;2023-02-27T16:53:55;9.10;;;1.85;;
29576;SDS011;16509;53.862;10.672;2023-02-27T16:56:22;2.22;;;1.67;;
29576;SDS011;16509;53.862;10.672;2023-02-27T16:58:50;3.33;;;1.10;;
29576;SDS011;16509;53.862;10.672;2023-02-27T17:01:19;1.67;;;1.30;;
29576;SDS011;16509;53.862;10.672;2023-02-27T17:03:45;3.70;;;1.58;;
29576;SDS011;16509;53.862;10.672;2023-02-27T17:06:11;6.03;;;1.95;;
29576;SDS011;16509;53.862;10.672;2023-02-27T17:08:39;4.03;;;1.60;;
29576;SDS011;16509;53.862;10.672;2023-02-27T17:11:08;9.98;;;2.00;;
29576;SDS011;16509;53.862;10.672;2023-02-27T17:13:34;7.97;;;1.80;;
29576;SDS011;16509;53.862;10.672;2023-02-27T17:16:04;3.40;;;1.70;;
29576;SDS011;16509;53.862;10.672;2023-02-27T17:18:30;1.65;;;1.35;;
29576;SDS011;16509;53.862;10.672;2023-02-27T17:21:00;5.97;;;1.90;;
29576;SDS011;16509;53.862;10.672;2023-02-27T17:25:54;7.25;;;1.63;;
29576;SDS011;16509;53.862;10.672;2023-02-27T17:28:21;3.47;;;1.42;;
29576;SDS011;16509;53.862;10.672;2023-02-27T17:30:47;2.35;;;1.30;;
29576;SDS011;16509;53.862;10.672;2023-02-27T17:33:13;1.77;;;1.40;;
29576;SDS011;16509;53.862;10.672;2023-02-27T17:35:39;2.35;;;1.45;;
29576;SDS011;16509;53.862;10.672;2023-02-27T17:38:04;4.97;;;1.58;;
29576;SDS011;16509;53.862;10.672;2023-02-27T17:40:30;7.47;;;1.83;;
29576;SDS011;16509;53.862;10.672;2023-02-27T17:42:56;6.70;;;1.60;;